sensor_id;sensor_type;location;lat;lon;timestamp;pressure;altitude;pressure_sealevel;temperature;humidity
34500;BME280;20745;50.882;6.962;2023-02-18T00:01:00;101723.22;;;12.58;100.00
34500;BME280;20745;50.882;6.962;2023-02-18T00:03:28;101720.69;;;12.56;100.00
34500;BME280;20745;50.882;6.962;2023-02-18T00:05:55;101712.03;;;12.53;100.00
34500;BME280;20745;50.882;6.962;2023-02-18T00:08:21;101728.13;;;12.54;100.00
34500;BME280;20745;50.882;6.962;2023-02-18T00:10:48;101724.22;;;12.49;100.00
34500;BME280;20745;50.882;6.962;2023-02-18T00:13:14;101715.63;;;12.45;100.00
34500;BME280;20745;50.882;6.962;2023-02-18T00:15:41;101712.41;;;12.50;100.00
34500;BME280;20745;50.882;6.962;2023-02-18T00:18:08;101721.88;;;12.46;100.00
34500;BME280;20745;50.882;6.962;2023-02-18T00:20:34;101713.06;;;12.52;100.00
34500;BME280;20745;50.882;6.962;2023-02-18T00:23:03;101712.41;;;12.50;100.00
34500;BME280;20745;50.882;6.962;2023-02-18T00:25:30;101714.41;;;12.48;100.00
34500;BME280;20745;50.882;6.962;2023-02-18T00:27:56;101714.41;;;12.48;100.00
34500;BME280;20745;50.882;6.962;2023-02-18T00:30:23;101707.31;;;12.47;100.00
34500;BME280;20745;50.882;6.962;2023-02-18T00:32:49;101704.94;;;12.52;100.00
34500;BME280;20745;50.882;6.962;2023-02-18T00:35:19;101714.75;;;12.45;100.00
34500;BME280;20745;50.882;6.962;2023-02-18T00:37:45;101720.00;;;12.46;100.00
34500;BME280;20745;50.882;6.962;2023-02-18T00:40:12;101708.16;;;12.47;100.00
34500;BME280;20745;50.882;6.962;2023-02-18T00:42:38;101697.81;;;12.51;100.00
34500;BME280;20745;50.882;6.962;2023-02-18T00:45:05;101674.81;;;12.47;100.00
34500;BME280;20745;50.882;6.962;2023-02-18T00:47:32;101675.31;;;12.58;100.00
34500;BME280;20745;50.882;6.962;2023-02-18T00:49:58;101679.34;;;12.54;100.00
34500;BME280;20745;50.882;6.962;2023-02-18T00:52:25;101677.66;;;12.53;100.00
34500;BME280;20745;50.882;6.962;2023-02-18T00:54:51;101673.44;;;12.51;100.00
34500;BME280;20745;50.882;6.962;2023-02-18T00:57:18;101673.94;;;12.54;100.00
34500;BME280;20745;50.882;6.962;2023-02-18T00:59:44;101673.59;;;12.49;100.00
34500;BME280;20745;50.882;6.962;2023-02-18T01:02:11;101677.84;;;12.52;100.00
34500;BME280;20745;50.882;6.962;2023-02-18T01:04:38;101671.06;;;12.48;100.00
34500;BME280;20745;50.882;6.962;2023-02-18T01:07:04;101670.91;;;12.49;100.00
34500;BME280;20745;50.882;6.962;2023-02-18T01:09:31;101678.00;;;12.50;100.00
34500;BME280;20745;50.882;6.962;2023-02-18T01:11:58;101663.78;;;12.48;100.00
34500;BME280;20745;50.882;6.962;2023-02-18T01:14:24;101664.97;;;12.54;100.00
34500;BME280;20745;50.882;6.962;2023-02-18T01:16:51;101663.25;;;12.53;100.00
34500;BME280;20745;50.882;6.962;2023-02-18T01:19:17;101664.28;;;12.52;100.00
34500;BME280;20745;50.882;6.962;2023-02-18T01:21:44;101653.13;;;12.47;100.00
34500;BME280;20745;50.882;6.962;2023-02-18T01:24:10;101660.56;;;12.45;100.00
34500;BME280;20745;50.882;6.962;2023-02-18T01:26:37;101647.69;;;12.38;100.00
34500;BME280;20745;50.882;6.962;2023-02-18T01:29:03;101661.94;;;12.41;100.00
34500;BME280;20745;50.882;6.962;2023-02-18T01:31:30;101661.75;;;12.42;100.00
34500;BME280;20745;50.882;6.962;2023-02-18T01:33:56;101666.31;;;12.42;100.00
34500;BME280;20745;50.882;6.962;2023-02-18T01:36:23;101651.75;;;12.43;100.00
34500;BME280;20745;50.882;6.962;2023-02-18T01:38:49;101656.50;;;12.49;100.00
34500;BME280;20745;50.882;6.962;2023-02-18T01:41:16;101646.31;;;12.43;100.00
34500;BME280;20745;50.882;6.962;2023-02-18T01:43:42;101641.44;;;12.46;100.00
34500;BME280;20745;50.882;6.962;2023-02-18T01:46:16;101648.03;;;12.44;100.00
34500;BME280;20745;50.882;6.962;2023-02-18T01:48:57;101647.03;;;12.45;100.00
34500;BME280;20745;50.882;6.962;2023-02-18T01:51:36;101638.56;;;12.31;100.00
34500;BME280;20745;50.882;6.962;2023-02-18T01:54:15;101644.00;;;12.40;100.00
34500;BME280;20745;50.882;6.962;2023-02-18T01:57:05;101646.34;;;12.34;100.00
34500;BME280;20745;50.882;6.962;2023-02-18T01:59:35;101642.28;;;12.30;100.00
34500;BME280;20745;50.882;6.962;2023-02-18T02:02:03;101630.78;;;12.37;100.00
34500;BME280;20745;50.882;6.962;2023-02-18T02:04:31;101628.72;;;12.38;100.00
34500;BME280;20745;50.882;6.962;2023-02-18T02:06:57;101624.34;;;12.38;100.00
34500;BME280;20745;50.882;6.962;2023-02-18T02:09:26;101616.22;;;12.38;100.00
34500;BME280;20745;50.882;6.962;2023-02-18T02:24:11;101606.72;;;12.42;100.00
34500;BME280;20745;50.882;6.962;2023-02-18T02:27:21;101591.66;;;12.39;100.00
34500;BME280;20745;50.882;6.962;2023-02-18T02:35:36;101589.25;;;12.44;100.00
34500;BME280;20745;50.882;6.962;2023-02-18T02:38:21;101588.44;;;12.44;100.00
34500;BME280;20745;50.882;6.962;2023-02-18T02:41:01;101577.59;;;12.44;100.00
34500;BME280;20745;50.882;6.962;2023-02-18T02:44:13;101584.69;;;12.45;100.00
34500;BME280;20745;50.882;6.962;2023-02-18T02:46:46;101579.28;;;12.45;100.00
34500;BME280;20745;50.882;6.962;2023-02-18T02:52:34;101567.41;;;12.46;100.00
34500;BME280;20745;50.882;6.962;2023-02-18T02:55:07;101545.28;;;12.26;100.00
34500;BME280;20745;50.882;6.962;2023-02-18T02:57:47;101570.13;;;12.46;100.00
34500;BME280;20745;50.882;6.962;2023-02-18T03:00:17;101547.16;;;12.33;100.00
34500;BME280;20745;50.882;6.962;2023-02-18T03:03:42;101562.34;;;12.43;100.00
34500;BME280;20745;50.882;6.962;2023-02-18T03:06:40;101559.63;;;12.43;100.00
34500;BME280;20745;50.882;6.962;2023-02-18T03:09:17;101561.50;;;12.42;100.00
34500;BME280;20745;50.882;6.962;2023-02-18T03:11:56;101550.69;;;12.42;100.00
34500;BME280;20745;50.882;6.962;2023-02-18T03:14:29;101536.28;;;12.42;100.00
34500;BME280;20745;50.882;6.962;2023-02-18T03:17:10;101535.06;;;12.44;100.00
34500;BME280;20745;50.882;6.962;2023-02-18T03:19:51;101531.72;;;12.42;100.00
34500;BME280;20745;50.882;6.962;2023-02-18T03:22:24;101529.66;;;12.44;100.00
34500;BME280;20745;50.882;6.962;2023-02-18T03:24:55;101521.53;;;12.44;100.00
34500;BME280;20745;50.882;6.962;2023-02-18T03:29:55;101521.38;;;12.38;100.00
34500;BME280;20745;50.882;6.962;2023-02-18T03:32:24;101521.03;;;12.41;100.00
34500;BME280;20745;50.882;6.962;2023-02-18T03:34:56;101525.44;;;12.42;100.00
34500;BME280;20745;50.882;6.962;2023-02-18T03:37:25;101521.03;;;12.41;100.00
34500;BME280;20745;50.882;6.962;2023-02-18T03:39:55;101515.44;;;12.42;100.00
34500;BME280;20745;50.882;6.962;2023-02-18T03:42:25;101511.25;;;12.40;100.00
34500;BME280;20745;50.882;6.962;2023-02-18T03:44:53;101523.41;;;12.44;100.00
34500;BME280;20745;50.882;6.962;2023-02-18T03:47:19;101511.72;;;12.43;100.00
34500;BME280;20745;50.882;6.962;2023-02-18T03:49:46;101526.13;;;12.44;100.00
34500;BME280;20745;50.882;6.962;2023-02-18T03:52:12;101517.66;;;12.47;100.00
34500;BME280;20745;50.882;6.962;2023-02-18T03:54:39;101523.38;;;12.52;100.00
34500;BME280;20745;50.882;6.962;2023-02-18T03:57:05;101518.13;;;12.50;100.00
34500;BME280;20745;50.882;6.962;2023-02-18T03:59:32;101527.28;;;12.49;100.00
34500;BME280;20745;50.882;6.962;2023-02-18T04:01:58;101513.06;;;12.47;100.00
34500;BME280;20745;50.882;6.962;2023-02-18T04:04:26;101513.72;;;12.49;100.00
34500;BME280;20745;50.882;6.962;2023-02-18T04:06:52;101519.63;;;12.53;100.00
34500;BME280;20745;50.882;6.962;2023-02-18T04:09:19;101503.38;;;12.53;100.00
34500;BME280;20745;50.882;6.962;2023-02-18T04:11:45;101507.78;;;12.54;100.00
34500;BME280;20745;50.882;6.962;2023-02-18T04:14:13;101508.28;;;12.57;100.00
34500;BME280;20745;50.882;6.962;2023-02-18T04:16:40;101502.19;;;12.55;100.00
34500;BME280;20745;50.882;6.962;2023-02-18T04:19:07;101496.97;;;12.54;100.00
34500;BME280;20745;50.882;6.962;2023-02-18T04:21:33;101494.06;;;12.55;100.00
34500;BME280;20745;50.882;6.962;2023-02-18T04:24:00;101495.25;;;12.53;100.00
34500;BME280;20745;50.882;6.962;2023-02-18T04:26:27;101480.34;;;12.57;100.00
34500;BME280;20745;50.882;6.962;2023-02-18T04:28:54;101481.16;;;12.57;100.00
34500;BME280;20745;50.882;6.962;2023-02-18T04:31:20;101482.88;;;12.58;100.00
34500;BME280;20745;50.882;6.962;2023-02-18T04:33:47;101476.59;;;12.58;100.00
34500;BME280;20745;50.882;6.962;2023-02-18T04:36:14;101478.00;;;12.54;100.00
34500;BME280;20745;50.882;6.962;2023-02-18T04:38:40;101485.94;;;12.55;100.00
34500;BME280;20745;50.882;6.962;2023-02-18T04:41:08;101482.38;;;12.55;100.00
34500;BME280;20745;50.882;6.962;2023-02-18T04:43:35;101481.03;;;12.51;100.00
34500;BME280;20745;50.882;6.962;2023-02-18T04:46:01;101480.69;;;12.54;100.00
34500;BME280;20745;50.882;6.962;2023-02-18T04:48:28;101466.63;;;12.50;100.00
34500;BME280;20745;50.882;6.962;2023-02-18T04:50:55;101454.66;;;12.45;100.00
34500;BME280;20745;50.882;6.962;2023-02-18T04:53:21;101471.53;;;12.55;100.00
34500;BME280;20745;50.882;6.962;2023-02-18T04:55:52;101465.63;;;12.51;100.00
34500;BME280;20745;50.882;6.962;2023-02-18T04:58:19;101460.22;;;12.51;100.00
34500;BME280;20745;50.882;6.962;2023-02-18T05:00:46;101462.44;;;12.48;100.00
34500;BME280;20745;50.882;6.962;2023-02-18T05:03:13;101463.28;;;12.40;100.00
34500;BME280;20745;50.882;6.962;2023-02-18T05:05:39;101466.19;;;12.38;100.00
34500;BME280;20745;50.882;6.962;2023-02-18T05:08:07;101454.69;;;12.37;100.00
34500;BME280;20745;50.882;6.962;2023-02-18T05:10:36;101463.81;;;12.35;100.00
34500;BME280;20745;50.882;6.962;2023-02-18T05:13:03;101469.91;;;12.38;100.00
34500;BME280;20745;50.882;6.962;2023-02-18T05:15:29;101457.41;;;12.37;100.00
34500;BME280;20745;50.882;6.962;2023-02-18T05:17:56;101436.09;;;12.25;100.00
34500;BME280;20745;50.882;6.962;2023-02-18T05:20:22;101459.47;;;12.26;100.00
34500;BME280;20745;50.882;6.962;2023-02-18T05:22:49;101458.75;;;12.32;100.00
34500;BME280;20745;50.882;6.962;2023-02-18T05:25:16;101445.25;;;12.24;100.00
34500;BME280;20745;50.882;6.962;2023-02-18T05:27:42;101447.94;;;12.24;100.00
34500;BME280;20745;50.882;6.962;2023-02-18T05:30:09;101441.50;;;12.25;100.00
34500;BME280;20745;50.882;6.962;2023-02-18T05:32:36;101445.25;;;12.24;100.00
34500;BME280;20745;50.882;6.962;2023-02-18T05:35:02;101451.00;;;12.21;100.00
34500;BME280;20745;50.882;6.962;2023-02-18T05:37:29;101440.16;;;12.21;100.00
34500;BME280;20745;50.882;6.962;2023-02-18T05:39:55;101442.88;;;12.21;100.00
34500;BME280;20745;50.882;6.962;2023-02-18T05:42:22;101434.28;;;12.18;100.00
34500;BME280;20745;50.882;6.962;2023-02-18T05:44:48;101437.47;;;12.21;100.00
34500;BME280;20745;50.882;6.962;2023-02-18T05:47:15;101436.63;;;12.21;100.00
34500;BME280;20745;50.882;6.962;2023-02-18T05:49:42;101433.41;;;12.17;100.00
34500;BME280;20745;50.882;6.962;2023-02-18T05:52:09;101419.53;;;12.20;100.00
34500;BME280;20745;50.882;6.962;2023-02-18T05:54:37;101421.22;;;12.21;100.00
34500;BME280;20745;50.882;6.962;2023-02-18T05:57:04;101426.31;;;12.16;100.00
34500;BME280;20745;50.882;6.962;2023-02-18T05:59:31;101412.28;;;12.13;100.00
34500;BME280;20745;50.882;6.962;2023-02-18T06:01:57;101407.22;;;12.10;100.00
34500;BME280;20745;50.882;6.962;2023-02-18T06:04:24;101402.31;;;12.13;100.00
34500;BME280;20745;50.882;6.962;2023-02-18T06:06:50;101401.94;;;12.16;100.00
34500;BME280;20745;50.882;6.962;2023-02-18T06:09:17;101402.94;;;12.15;100.00
34500;BME280;20745;50.882;6.962;2023-02-18T06:11:43;101386.69;;;12.15;100.00
34500;BME280;20745;50.882;6.962;2023-02-18T06:14:10;101380.28;;;12.16;100.00
34500;BME280;20745;50.882;6.962;2023-02-18T06:16:37;101382.66;;;12.19;100.00
34500;BME280;20745;50.882;6.962;2023-02-18T06:19:03;101384.81;;;12.24;100.00
34500;BME280;20745;50.882;6.962;2023-02-18T06:21:30;101389.41;;;12.23;100.00
34500;BME280;20745;50.882;6.962;2023-02-18T06:23:56;101386.34;;;12.26;100.00
34500;BME280;20745;50.882;6.962;2023-02-18T06:26:23;101386.34;;;12.26;100.00
34500;BME280;20745;50.882;6.962;2023-02-18T06:28:50;101388.38;;;12.24;100.00
34500;BME280;20745;50.882;6.962;2023-02-18T06:31:16;101383.44;;;12.28;100.00
34500;BME280;20745;50.882;6.962;2023-02-18T06:33:43;101392.09;;;12.23;100.00
34500;BME280;20745;50.882;6.962;2023-02-18T06:36:10;101380.91;;;12.26;100.00
34500;BME280;20745;50.882;6.962;2023-02-18T06:38:40;101378.03;;;12.28;100.00
34500;BME280;20745;50.882;6.962;2023-02-18T06:41:07;101377.88;;;12.29;100.00
34500;BME280;20745;50.882;6.962;2023-02-18T06:43:34;101392.06;;;12.31;100.00
34500;BME280;20745;50.882;6.962;2023-02-18T06:46:02;101368.38;;;12.25;100.00
34500;BME280;20745;50.882;6.962;2023-02-18T06:48:28;101377.47;;;12.32;100.00
34500;BME280;20745;50.882;6.962;2023-02-18T06:50:55;101383.75;;;12.33;100.00
34500;BME280;20745;50.882;6.962;2023-02-18T06:53:22;101383.56;;;12.34;100.00
34500;BME280;20745;50.882;6.962;2023-02-18T06:55:48;101380.19;;;12.32;100.00
34500;BME280;20745;50.882;6.962;2023-02-18T06:58:15;101374.41;;;12.35;100.00
34500;BME280;20745;50.882;6.962;2023-02-18T07:00:42;101363.59;;;12.35;100.00
34500;BME280;20745;50.882;6.962;2023-02-18T07:03:11;101363.22;;;12.38;100.00
34500;BME280;20745;50.882;6.962;2023-02-18T07:05:39;101369.00;;;12.35;100.00
34500;BME280;20745;50.882;6.962;2023-02-18T07:08:06;101370.72;;;12.37;100.00
34500;BME280;20745;50.882;6.962;2023-02-18T07:10:32;101366.97;;;12.38;100.00
34500;BME280;20745;50.882;6.962;2023-02-18T07:12:59;101373.25;;;12.38;100.00
34500;BME280;20745;50.882;6.962;2023-02-18T07:15:26;101371.72;;;12.35;100.00
34500;BME280;20745;50.882;6.962;2023-02-18T07:17:53;101390.31;;;12.38;100.00
34500;BME280;20745;50.882;6.962;2023-02-18T07:20:20;101376.13;;;12.37;100.00
34500;BME280;20745;50.882;6.962;2023-02-18T07:22:48;101397.06;;;12.43;100.00
34500;BME280;20745;50.882;6.962;2023-02-18T07:25:15;101401.66;;;12.42;100.00
34500;BME280;20745;50.882;6.962;2023-02-18T07:27:41;101396.66;;;12.31;100.00
34500;BME280;20745;50.882;6.962;2023-02-18T07:30:08;101410.31;;;12.38;100.00
34500;BME280;20745;50.882;6.962;2023-02-18T07:32:35;101413.53;;;12.41;100.00
34500;BME280;20745;50.882;6.962;2023-02-18T07:35:03;101414.00;;;12.45;100.00
34500;BME280;20745;50.882;6.962;2023-02-18T07:37:30;101419.94;;;12.48;100.00
34500;BME280;20745;50.882;6.962;2023-02-18T07:39:57;101407.19;;;12.49;100.00
34500;BME280;20745;50.882;6.962;2023-02-18T07:42:24;101412.59;;;12.57;100.00
34500;BME280;20745;50.882;6.962;2023-02-18T07:44:50;101407.47;;;12.62;100.00
34500;BME280;20745;50.882;6.962;2023-02-18T07:47:17;101406.44;;;12.63;100.00
34500;BME280;20745;50.882;6.962;2023-02-18T07:49:45;101411.50;;;12.66;100.00
34500;BME280;20745;50.882;6.962;2023-02-18T07:52:13;101408.81;;;12.66;100.00
34500;BME280;20745;50.882;6.962;2023-02-18T07:54:40;101403.94;;;12.61;100.00
34500;BME280;20745;50.882;6.962;2023-02-18T07:57:07;101393.97;;;12.54;100.00
34500;BME280;20745;50.882;6.962;2023-02-18T07:59:34;101393.63;;;12.57;100.00
34500;BME280;20745;50.882;6.962;2023-02-18T08:02:01;101394.34;;;12.51;100.00
34500;BME280;20745;50.882;6.962;2023-02-18T08:04:28;101415.50;;;12.55;100.00
34500;BME280;20745;50.882;6.962;2023-02-18T08:06:55;101417.22;;;12.48;100.00
34500;BME280;20745;50.882;6.962;2023-02-18T08:09:21;101424.03;;;12.36;100.00
34500;BME280;20745;50.882;6.962;2023-02-18T08:11:48;101437.00;;;12.18;100.00
34500;BME280;20745;50.882;6.962;2023-02-18T08:14:17;101436.16;;;12.01;100.00
34500;BME280;20745;50.882;6.962;2023-02-18T08:16:44;101457.19;;;11.99;100.00
34500;BME280;20745;50.882;6.962;2023-02-18T08:19:10;101459.50;;;12.02;100.00
34500;BME280;20745;50.882;6.962;2023-02-18T08:21:39;101456.63;;;12.04;100.00
34500;BME280;20745;50.882;6.962;2023-02-18T08:24:06;101458.88;;;12.00;100.00
34500;BME280;20745;50.882;6.962;2023-02-18T08:26:33;101461.06;;;11.97;100.00
34500;BME280;20745;50.882;6.962;2023-02-18T08:29:00;101456.84;;;11.94;100.00
34500;BME280;20745;50.882;6.962;2023-02-18T08:31:28;101467.16;;;11.91;100.00
34500;BME280;20745;50.882;6.962;2023-02-18T08:33:56;101482.72;;;11.97;100.00
34500;BME280;20745;50.882;6.962;2023-02-18T08:36:24;101488.66;;;12.00;100.00
34500;BME280;20745;50.882;6.962;2023-02-18T08:38:50;101487.44;;;12.03;100.00
34500;BME280;20745;50.882;6.962;2023-02-18T08:41:17;101484.06;;;12.56;100.00
34500;BME280;20745;50.882;6.962;2023-02-18T08:43:45;101491.53;;;12.54;100.00
34500;BME280;20745;50.882;6.962;2023-02-18T08:46:13;101502.84;;;12.57;100.00
34500;BME280;20745;50.882;6.962;2023-02-18T08:49:08;101508.38;;;12.80;100.00
34500;BME280;20745;50.882;6.962;2023-02-18T08:51:36;101506.53;;;12.72;100.00
34500;BME280;20745;50.882;6.962;2023-02-18T08:54:03;101503.72;;;12.58;100.00
34500;BME280;20745;50.882;6.962;2023-02-18T08:56:29;101496.44;;;12.50;100.00
34500;BME280;20745;50.882;6.962;2023-02-18T08:58:57;101490.72;;;12.37;100.00
34500;BME280;20745;50.882;6.962;2023-02-18T09:01:24;101490.44;;;12.32;100.00
34500;BME280;20745;50.882;6.962;2023-02-18T09:03:51;101483.34;;;12.23;100.00
34500;BME280;20745;50.882;6.962;2023-02-18T09:06:17;101487.25;;;12.20;100.00
34500;BME280;20745;50.882;6.962;2023-02-18T09:08:44;101473.53;;;12.22;100.00
34500;BME280;20745;50.882;6.962;2023-02-18T09:11:10;101473.34;;;12.23;100.00
34500;BME280;20745;50.882;6.962;2023-02-18T09:13:38;101479.59;;;12.24;100.00
34500;BME280;20745;50.882;6.962;2023-02-18T09:16:16;101478.44;;;12.26;100.00
34500;BME280;20745;50.882;6.962;2023-02-18T09:18:44;101481.63;;;12.30;100.00
34500;BME280;20745;50.882;6.962;2023-02-18T09:21:13;101477.72;;;12.32;100.00
34500;BME280;20745;50.882;6.962;2023-02-18T09:23:41;101470.59;;;12.31;100.00
34500;BME280;20745;50.882;6.962;2023-02-18T09:26:10;101474.34;;;12.30;100.00
34500;BME280;20745;50.882;6.962;2023-02-18T09:28:39;101466.06;;;12.32;100.00
34500;BME280;20745;50.882;6.962;2023-02-18T09:31:18;101460.47;;;12.33;100.00
34500;BME280;20745;50.882;6.962;2023-02-18T09:34:05;101460.13;;;12.28;100.00
34500;BME280;20745;50.882;6.962;2023-02-18T09:36:32;101446.75;;;12.27;100.00
34500;BME280;20745;50.882;6.962;2023-02-18T09:38:59;101456.03;;;12.32;100.00
34500;BME280;20745;50.882;6.962;2023-02-18T09:41:35;101464.66;;;12.36;100.00
34500;BME280;20745;50.882;6.962;2023-02-18T09:44:15;101463.47;;;12.38;100.00
34500;BME280;20745;50.882;6.962;2023-02-18T09:46:50;101448.19;;;12.54;100.00
34500;BME280;20745;50.882;6.962;2023-02-18T09:49:21;101449.09;;;12.69;100.00
34500;BME280;20745;50.882;6.962;2023-02-18T09:51:48;101440.84;;;12.62;100.00
34500;BME280;20745;50.882;6.962;2023-02-18T09:54:17;101442.75;;;12.54;100.00
34500;BME280;20745;50.882;6.962;2023-02-18T09:56:44;101434.97;;;12.51;100.00
34500;BME280;20745;50.882;6.962;2023-02-18T09:59:19;101435.00;;;12.43;100.00
34500;BME280;20745;50.882;6.962;2023-02-18T10:01:48;101427.72;;;12.43;100.00
34500;BME280;20745;50.882;6.962;2023-02-18T10:04:40;101427.91;;;12.42;100.00
34500;BME280;20745;50.882;6.962;2023-02-18T10:07:07;101417.91;;;12.42;100.00
34500;BME280;20745;50.882;6.962;2023-02-18T10:09:43;101411.66;;;12.42;100.00
34500;BME280;20745;50.882;6.962;2023-02-18T10:12:16;101407.91;;;12.43;100.00
34500;BME280;20745;50.882;6.962;2023-02-18T10:14:50;101412.84;;;12.39;100.00
34500;BME280;20745;50.882;6.962;2023-02-18T10:17:17;101399.47;;;12.38;100.00
34500;BME280;20745;50.882;6.962;2023-02-18T10:19:47;101414.19;;;12.43;100.00
34500;BME280;20745;50.882;6.962;2023-02-18T10:22:15;101411.00;;;12.40;100.00
34500;BME280;20745;50.882;6.962;2023-02-18T10:24:52;101411.97;;;12.47;100.00
34500;BME280;20745;50.882;6.962;2023-02-18T10:27:30;101408.75;;;12.51;100.00
34500;BME280;20745;50.882;6.962;2023-02-18T10:30:23;101391.97;;;12.48;100.00
34500;BME280;20745;50.882;6.962;2023-02-18T10:32:54;101404.81;;;12.54;100.00
34500;BME280;20745;50.882;6.962;2023-02-18T10:35:29;101391.56;;;12.59;100.00
34500;BME280;20745;50.882;6.962;2023-02-18T10:38:19;101399.06;;;12.57;100.00
34500;BME280;20745;50.882;6.962;2023-02-18T10:41:13;101401.09;;;12.55;100.00
34500;BME280;20745;50.882;6.962;2023-02-18T10:51:47;101397.34;;;12.56;100.00
34500;BME280;20745;50.882;6.962;2023-02-18T10:54:15;101408.22;;;12.48;100.00
34500;BME280;20745;50.882;6.962;2023-02-18T10:56:49;101400.63;;;12.51;100.00
34500;BME280;20745;50.882;6.962;2023-02-18T10:59:25;101398.78;;;12.44;100.00
34500;BME280;20745;50.882;6.962;2023-02-18T11:01:58;101403.84;;;12.47;100.00
34500;BME280;20745;50.882;6.962;2023-02-18T11:04:37;101393.00;;;12.47;100.00
34500;BME280;20745;50.882;6.962;2023-02-18T11:07:11;101397.91;;;12.51;100.00
34500;BME280;20745;50.882;6.962;2023-02-18T11:09:41;101405.81;;;12.53;100.00
34500;BME280;20745;50.882;6.962;2023-02-18T11:12:26;101408.59;;;12.45;100.00
34500;BME280;20745;50.882;6.962;2023-02-18T11:15:27;101422.03;;;12.30;100.00
34500;BME280;20745;50.882;6.962;2023-02-18T11:18:10;101425.94;;;12.27;100.00
34500;BME280;20745;50.882;6.962;2023-02-18T11:20:39;101437.47;;;12.21;100.00
34500;BME280;20745;50.882;6.962;2023-02-18T11:25:36;101433.94;;;12.13;100.00
34500;BME280;20745;50.882;6.962;2023-02-18T11:28:18;101434.13;;;12.11;100.00
34500;BME280;20745;50.882;6.962;2023-02-18T11:30:53;101428.69;;;12.19;100.00
34500;BME280;20745;50.882;6.962;2023-02-18T11:33:33;101419.19;;;12.23;100.00
34500;BME280;20745;50.882;6.962;2023-02-18T11:36:15;101428.81;;;12.26;100.00
34500;BME280;20745;50.882;6.962;2023-02-18T11:38:52;101431.00;;;12.22;100.00
34500;BME280;20745;50.882;6.962;2023-02-18T11:41:32;101414.81;;;12.14;100.00
34500;BME280;20745;50.882;6.962;2023-02-18T11:43:59;101426.38;;;12.00;100.00
34500;BME280;20745;50.882;6.962;2023-02-18T11:46:27;101429.72;;;12.02;100.00
34500;BME280;20745;50.882;6.962;2023-02-18T11:48:55;101421.31;;;11.97;100.00
34500;BME280;20745;50.882;6.962;2023-02-18T11:51:33;101428.91;;;11.94;100.00
34500;BME280;20745;50.882;6.962;2023-02-18T11:54:09;101426.38;;;11.92;100.00
34500;BME280;20745;50.882;6.962;2023-02-18T11:57:08;101423.00;;;11.90;100.00
34500;BME280;20745;50.882;6.962;2023-02-18T11:59:38;101422.66;;;11.93;100.00
34500;BME280;20745;50.882;6.962;2023-02-18T12:02:32;101426.75;;;11.89;100.00
34500;BME280;20745;50.882;6.962;2023-02-18T12:05:24;101419.97;;;11.85;100.00
34500;BME280;20745;50.882;6.962;2023-02-18T12:10:44;101410.84;;;11.86;100.00
34500;BME280;20745;50.882;6.962;2023-02-18T12:13:35;101417.44;;;11.92;100.00
34500;BME280;20745;50.882;6.962;2023-02-18T12:25:09;101424.22;;;11.88;100.00
34500;BME280;20745;50.882;6.962;2023-02-18T12:30:56;101426.22;;;11.86;100.00
34500;BME280;20745;50.882;6.962;2023-02-18T12:33:34;101422.19;;;11.82;100.00
34500;BME280;20745;50.882;6.962;2023-02-18T12:36:28;101417.78;;;11.89;100.00
34500;BME280;20745;50.882;6.962;2023-02-18T12:42:05;101413.69;;;11.93;100.00
34500;BME280;20745;50.882;6.962;2023-02-18T12:45:02;101427.75;;;11.96;100.00
34500;BME280;20745;50.882;6.962;2023-02-18T12:55:41;101414.81;;;12.14;100.00
34500;BME280;20745;50.882;6.962;2023-02-18T12:58:30;101411.59;;;12.19;100.00
34500;BME280;20745;50.882;6.962;2023-02-18T13:04:09;101412.22;;;12.29;100.00
34500;BME280;20745;50.882;6.962;2023-02-18T13:06:57;101416.16;;;12.18;100.00
34500;BME280;20745;50.882;6.962;2023-02-18T13:15:16;101413.13;;;12.13;100.00
34500;BME280;20745;50.882;6.962;2023-02-18T13:17:45;101426.66;;;12.13;100.00
34500;BME280;20745;50.882;6.962;2023-02-18T13:20:39;101428.53;;;12.13;100.00
34500;BME280;20745;50.882;6.962;2023-02-18T13:23:14;101416.34;;;12.09;100.00
34500;BME280;20745;50.882;6.962;2023-02-18T13:25:43;101415.38;;;12.02;100.00
34500;BME280;20745;50.882;6.962;2023-02-18T13:28:34;101424.34;;;11.94;100.00
34500;BME280;20745;50.882;6.962;2023-02-18T13:31:30;101420.63;;;12.03;100.00
34500;BME280;20745;50.882;6.962;2023-02-18T13:34:19;101405.03;;;12.05;100.00
34500;BME280;20745;50.882;6.962;2023-02-18T13:37:00;101407.94;;;11.96;100.00
34500;BME280;20745;50.882;6.962;2023-02-18T13:39:30;101410.69;;;11.88;100.00
34500;BME280;20745;50.882;6.962;2023-02-18T13:42:22;101404.06;;;11.90;100.00
34500;BME280;20745;50.882;6.962;2023-02-18T13:58:25;101416.25;;;11.86;100.00
34500;BME280;20745;50.882;6.962;2023-02-18T14:01:00;101408.31;;;11.85;100.00
34500;BME280;20745;50.882;6.962;2023-02-18T14:06:28;101411.16;;;11.91;100.00
34500;BME280;20745;50.882;6.962;2023-02-18T14:11:45;101406.44;;;11.85;100.00
34500;BME280;20745;50.882;6.962;2023-02-18T14:20:26;101411.34;;;11.90;100.00
34500;BME280;20745;50.882;6.962;2023-02-18T14:22:53;101399.34;;;11.84;100.00
34500;BME280;20745;50.882;6.962;2023-02-18T14:27:50;101402.69;;;11.94;100.00
34500;BME280;20745;50.882;6.962;2023-02-18T14:32:47;101404.19;;;11.97;100.00
34500;BME280;20745;50.882;6.962;2023-02-18T14:35:42;101398.63;;;11.98;100.00
34500;BME280;20745;50.882;6.962;2023-02-18T14:38:56;101355.72;;;11.71;100.00
34500;BME280;20745;50.882;6.962;2023-02-18T14:44:22;101389.50;;;11.99;100.00